createdAt,value
2019-01-10T00:00:27.494Z,2.38
2019-01-10T00:01:27.307Z,2.48
2019-01-10T00:02:27.277Z,2.45
2019-01-10T00:03:27.245Z,2.45
2019-01-10T00:04:27.313Z,2.38
2019-01-10T00:05:27.186Z,2.37
2019-01-10T00:06:27.226Z,2.41
2019-01-10T00:07:27.124Z,2.41
2019-01-10T00:08:27.105Z,2.44
2019-01-10T00:09:27.145Z,2.35
2019-01-10T00:10:27.035Z,2.38
2019-01-10T00:11:27.165Z,2.44
2019-01-10T00:12:26.974Z,2.28
2019-01-10T00:13:26.932Z,2.34
2019-01-10T00:14:26.904Z,2.28
2019-01-10T00:15:26.973Z,2.28
2019-01-10T00:16:26.844Z,2.28
2019-01-10T00:17:26.993Z,2.22
2019-01-10T00:18:26.786Z,2.20
2019-01-10T00:19:26.756Z,2.23
2019-01-10T00:20:26.804Z,2.15
2019-01-10T00:21:26.693Z,2.17
2019-01-10T00:22:26.825Z,2.13
2019-01-10T00:23:26.635Z,2.12
2019-01-10T00:24:26.614Z,2.16
2019-01-10T00:25:26.744Z,2.08
2019-01-10T00:26:26.534Z,2.10
2019-01-10T00:27:26.656Z,2.13
2019-01-10T00:28:26.473Z,2.09
2019-01-10T00:29:26.674Z,2.06
2019-01-10T00:30:26.413Z,2.13
2019-01-10T00:31:26.474Z,2.06
2019-01-10T00:32:26.354Z,2.06
2019-01-10T00:33:26.491Z,1.99
2019-01-10T00:34:26.292Z,2.01
2019-01-10T00:35:26.263Z,2.01
2019-01-10T00:36:26.413Z,1.99
2019-01-10T00:37:26.218Z,2.04
2019-01-10T00:38:26.322Z,1.99
2019-01-10T00:39:26.146Z,2.01
2019-01-10T00:40:26.104Z,1.93
2019-01-10T00:41:26.074Z,1.90
2019-01-10T00:42:26.142Z,1.94
2019-01-10T00:43:26.013Z,1.89
2019-01-10T00:44:26.153Z,1.93
2019-01-10T00:45:25.954Z,1.89
2019-01-10T00:46:25.935Z,1.89
2019-01-10T00:47:26.072Z,1.87
2019-01-10T00:48:25.861Z,1.98
2019-01-10T00:49:25.992Z,1.89
2019-01-10T00:50:25.864Z,1.90
2019-01-10T00:51:25.764Z,1.87
2019-01-10T00:52:25.734Z,1.85
2019-01-10T00:53:25.814Z,1.91
2019-01-10T00:54:25.690Z,1.97
2019-01-10T00:55:25.823Z,1.87
2019-01-10T00:56:25.625Z,1.87
2019-01-10T00:57:25.733Z,1.89
2019-01-10T00:58:25.553Z,1.87
2019-01-10T00:59:25.661Z,1.91
2019-01-10T01:00:25.483Z,1.90
2019-01-10T01:01:25.663Z,1.90
2019-01-10T01:02:25.572Z,1.91
2019-01-10T01:03:25.396Z,1.87
2019-01-10T01:04:25.488Z,1.90
2019-01-10T01:05:25.334Z,1.91
2019-01-10T01:06:25.499Z,1.97
2019-01-10T01:07:25.272Z,1.89
2019-01-10T01:08:25.404Z,1.93
2019-01-10T01:09:25.205Z,1.90
2019-01-10T01:10:25.322Z,1.90
2019-01-10T01:11:25.153Z,1.90
2019-01-10T01:12:25.330Z,1.89
2019-01-10T01:13:25.133Z,1.87
2019-01-10T01:14:25.243Z,1.93
2019-01-10T01:15:25.025Z,1.78
2019-01-10T01:16:25.153Z,1.93
2019-01-10T01:17:24.964Z,1.90
2019-01-10T01:18:24.923Z,1.85
2019-01-10T01:19:24.903Z,1.78
2019-01-10T01:20:24.984Z,1.90
2019-01-10T01:21:24.843Z,1.89
2019-01-10T01:22:24.893Z,1.87
2019-01-10T01:23:24.774Z,1.79
2019-01-10T01:24:24.741Z,1.89
2019-01-10T01:25:24.814Z,1.80
2019-01-10T01:26:24.684Z,1.79
2019-01-10T01:27:24.722Z,1.79
2019-01-10T01:28:24.623Z,1.80
2019-01-10T01:29:24.588Z,1.79
2019-01-10T01:30:24.561Z,1.78
2019-01-10T01:31:24.641Z,1.78
2019-01-10T01:32:24.506Z,1.69
2019-01-10T01:33:24.565Z,1.71
2019-01-10T01:34:24.431Z,1.78
2019-01-10T01:35:24.473Z,1.73
2019-01-10T01:36:24.373Z,1.78
2019-01-10T01:37:24.381Z,1.79
2019-01-10T01:38:24.314Z,1.79
2019-01-10T01:39:24.403Z,1.68
2019-01-10T01:40:24.253Z,1.76
2019-01-10T01:41:24.304Z,1.80
2019-01-10T01:42:24.192Z,1.78
2019-01-10T01:43:24.224Z,1.72
2019-01-10T01:44:24.121Z,1.75
2019-01-10T01:45:24.105Z,1.72
2019-01-10T01:46:24.063Z,1.69
2019-01-10T01:47:24.143Z,1.75
2019-01-10T01:48:24.041Z,1.75
2019-01-10T01:49:24.061Z,1.69
2019-01-10T01:50:23.933Z,1.79
2019-01-10T01:51:23.905Z,1.68
2019-01-10T01:52:23.971Z,1.65
2019-01-10T01:53:23.844Z,1.68
2019-01-10T01:54:23.885Z,1.73
2019-01-10T01:55:23.793Z,1.69
2019-01-10T01:56:23.775Z,1.69
2019-01-10T01:57:23.726Z,1.68
2019-01-10T01:58:23.812Z,1.62
2019-01-10T01:59:23.653Z,1.71
2019-01-10T02:00:23.728Z,1.64
2019-01-10T02:01:23.592Z,1.54
2019-01-10T02:02:23.575Z,1.62
2019-01-10T02:03:23.641Z,1.68
2019-01-10T02:04:23.502Z,1.65
2019-01-10T02:05:23.552Z,1.54
2019-01-10T02:06:23.457Z,1.62
2019-01-10T02:07:23.481Z,1.65
2019-01-10T02:09:56.393Z,1.62
2019-01-10T02:10:56.003Z,1.60
2019-01-10T02:12:48.879Z,1.62
2019-01-10T02:13:48.903Z,1.57
2019-01-10T02:15:54.799Z,1.72
2019-01-10T02:16:53.663Z,1.60
2019-01-10T02:18:57.683Z,1.71
2019-01-10T02:19:57.583Z,1.69
2019-01-10T02:22:01.584Z,1.68
2019-01-10T02:23:01.493Z,1.61
2019-01-10T02:25:05.498Z,1.60
2019-01-10T02:26:05.392Z,1.69
2019-01-10T02:28:09.418Z,1.68
2019-01-10T02:29:09.373Z,1.64
2019-01-10T02:31:13.323Z,1.64
2019-01-10T02:32:13.224Z,1.64
2019-01-10T02:34:17.160Z,1.69
2019-01-10T02:35:17.124Z,1.65
2019-01-10T02:37:21.131Z,1.72
2019-01-10T02:38:21.033Z,1.73
2019-01-10T02:40:25.056Z,1.72
2019-01-10T02:41:24.942Z,1.72
2019-01-10T02:43:28.956Z,1.65
2019-01-10T02:44:28.865Z,1.69
2019-01-10T02:46:32.862Z,1.73
2019-01-10T02:47:32.775Z,1.68
2019-01-10T02:49:36.781Z,1.64
2019-01-10T02:50:36.746Z,1.61
2019-01-10T02:52:29.624Z,1.69
2019-01-10T02:53:29.526Z,1.62
2019-01-10T02:55:34.563Z,1.71
2019-01-10T02:56:33.502Z,1.65
2019-01-10T02:58:37.443Z,1.71
2019-01-10T02:59:37.343Z,1.65
2019-01-10T03:01:41.293Z,1.72
2019-01-10T03:02:41.257Z,1.69
2019-01-10T03:04:45.274Z,1.78
2019-01-10T03:05:45.163Z,1.64
2019-01-10T03:07:49.199Z,1.69
2019-01-10T03:08:49.073Z,1.78
2019-01-10T03:10:53.085Z,1.72
2019-01-10T03:11:52.984Z,1.72
2019-01-10T03:13:56.993Z,1.69
2019-01-10T03:14:56.893Z,1.65
2019-01-10T03:17:00.902Z,1.69
2019-01-10T03:18:00.873Z,1.75
2019-01-10T03:20:04.813Z,1.72
2019-01-10T03:21:04.713Z,1.68
2019-01-10T03:22:57.672Z,1.64
2019-01-10T03:23:57.563Z,1.73
2019-01-10T03:26:01.578Z,1.72
2019-01-10T03:27:01.472Z,1.69
2019-01-10T03:29:05.439Z,1.72
2019-01-10T03:30:05.455Z,1.69
2019-01-10T03:32:09.403Z,1.72
2019-01-10T03:33:09.315Z,1.69
2019-01-10T03:35:13.302Z,1.78
2019-01-10T03:36:13.208Z,1.72
2019-01-10T03:38:18.135Z,1.73
2019-01-10T03:39:18.046Z,1.68
2019-01-10T03:41:22.053Z,1.72
2019-01-10T03:42:21.943Z,1.65
2019-01-10T03:44:34.056Z,1.75
2019-01-10T03:45:26.784Z,1.73
2019-01-10T03:47:31.717Z,1.75
2019-01-10T03:48:31.617Z,1.73
2019-01-10T03:50:37.870Z,1.73
2019-01-10T03:51:36.450Z,1.71
2019-01-10T03:53:40.457Z,1.71
2019-01-10T03:54:40.355Z,1.72
2019-01-10T03:56:45.289Z,1.69
2019-01-10T03:57:45.183Z,1.69
2019-01-10T03:59:50.112Z,1.68
2019-01-10T04:00:50.013Z,1.69
2019-01-10T04:02:43.782Z,1.69
2019-01-10T04:03:43.726Z,1.72
2019-01-10T04:05:47.792Z,1.65
2019-01-10T04:06:47.765Z,1.75
2019-01-10T04:08:51.703Z,1.73
2019-01-10T04:09:51.604Z,1.69
2019-01-10T04:11:55.613Z,1.69
2019-01-10T04:12:55.543Z,1.68
2019-01-10T04:14:59.637Z,1.73
2019-01-10T04:15:59.535Z,1.68
2019-01-10T04:18:03.544Z,1.62
2019-01-10T04:19:03.444Z,1.68
2019-01-10T04:21:16.679Z,1.64
2019-01-10T04:22:07.354Z,1.68
2019-01-10T04:24:11.363Z,1.61
2019-01-10T04:25:11.264Z,1.61
2019-01-10T04:27:15.273Z,1.71
2019-01-10T04:28:15.162Z,1.64
2019-01-10T04:30:19.183Z,1.50
2019-01-10T04:31:19.085Z,1.51
2019-01-10T04:33:23.121Z,1.65
2019-01-10T04:34:22.994Z,1.57
2019-01-10T04:36:27.003Z,1.62
2019-01-10T04:37:26.896Z,1.65
2019-01-10T04:39:30.856Z,1.55
2019-01-10T04:40:30.825Z,1.55
2019-01-10T04:42:23.706Z,1.61
2019-01-10T04:43:23.667Z,1.60
2019-01-10T04:45:27.612Z,1.71
2019-01-10T04:46:27.572Z,1.60
2019-01-10T04:48:31.583Z,1.65
2019-01-10T04:49:31.484Z,1.51
2019-01-10T04:51:35.493Z,1.65
2019-01-10T04:52:35.399Z,1.71
2019-01-10T04:54:39.416Z,1.62
2019-01-10T04:55:39.375Z,1.65
2019-01-10T04:57:43.312Z,1.64
2019-01-10T04:58:43.209Z,1.52
2019-01-10T05:00:47.236Z,1.65
2019-01-10T05:01:47.136Z,1.64
2019-01-10T05:03:51.137Z,1.65
2019-01-10T05:04:51.040Z,1.68
2019-01-10T05:06:55.044Z,1.64
2019-01-10T05:07:54.946Z,1.57
2019-01-10T05:09:58.965Z,1.64
2019-01-10T05:10:58.852Z,1.60
2019-01-10T05:12:51.817Z,1.62
2019-01-10T05:13:51.709Z,1.61
2019-01-10T05:15:55.720Z,1.57
2019-01-10T05:16:55.742Z,1.60
2019-01-10T05:18:59.629Z,1.61
2019-01-10T05:19:59.536Z,1.58
2019-01-10T05:22:03.545Z,1.60
2019-01-10T05:23:03.504Z,1.55
2019-01-10T05:25:07.442Z,1.55
2019-01-10T05:26:07.345Z,1.46
2019-01-10T05:28:11.299Z,1.57
2019-01-10T05:29:11.269Z,1.58
2019-01-10T05:31:15.265Z,1.58
2019-01-10T05:32:15.163Z,1.60
2019-01-10T05:34:19.171Z,1.61
2019-01-10T05:35:19.095Z,1.46
2019-01-10T05:37:23.085Z,1.54
2019-01-10T05:38:22.986Z,1.51
2019-01-10T05:40:26.995Z,1.51
2019-01-10T05:41:26.905Z,1.46
2019-01-10T05:43:30.904Z,1.55
2019-01-10T05:44:30.873Z,1.54
2019-01-10T05:46:34.814Z,1.54
2019-01-10T05:47:34.727Z,1.44
2019-01-10T05:49:38.736Z,1.39
2019-01-10T05:50:38.625Z,1.44
2019-01-10T05:52:32.607Z,1.44
2019-01-10T05:53:31.472Z,1.47
2019-01-10T05:55:35.428Z,1.42
2019-01-10T05:56:35.397Z,1.42
2019-01-10T05:58:39.393Z,1.43
2019-01-10T05:59:39.295Z,1.43
2019-01-10T06:01:44.225Z,1.52
2019-01-10T06:02:44.124Z,1.54
2019-01-10T06:04:49.064Z,1.51
2019-01-10T06:05:48.954Z,1.47
2019-01-10T06:07:52.907Z,1.44
2019-01-10T06:08:52.864Z,1.52
2019-01-10T06:10:56.883Z,1.55
2019-01-10T06:11:56.775Z,1.55
2019-01-10T06:14:01.725Z,1.68
2019-01-10T06:15:01.621Z,1.57
2019-01-10T06:17:06.499Z,1.61
2019-01-10T06:18:06.459Z,1.58
2019-01-10T06:20:11.386Z,1.57
2019-01-10T06:21:11.275Z,1.51
2019-01-10T06:23:05.145Z,1.64
2019-01-10T06:24:05.045Z,1.64
2019-01-10T06:26:09.055Z,1.57
2019-01-10T06:27:08.969Z,1.68
2019-01-10T06:29:12.964Z,1.61
2019-01-10T06:30:12.868Z,1.64
2019-01-10T06:32:16.877Z,1.54
2019-01-10T06:33:16.774Z,1.61
2019-01-10T06:35:20.788Z,1.65
2019-01-10T06:36:20.684Z,1.61
2019-01-10T06:38:24.714Z,1.62
2019-01-10T06:39:24.594Z,1.54
2019-01-10T06:41:28.608Z,1.54
2019-01-10T06:42:28.503Z,1.65
2019-01-10T06:44:32.453Z,1.62
2019-01-10T06:45:32.483Z,1.68
2019-01-10T06:47:36.423Z,1.72
2019-01-10T06:48:36.332Z,1.68
2019-01-10T06:50:40.412Z,1.68
2019-01-10T06:51:40.235Z,1.68
2019-01-10T06:53:44.256Z,1.62
2019-01-10T06:54:44.146Z,1.65
2019-01-10T06:56:48.165Z,1.68
2019-01-10T06:57:48.053Z,1.62
2019-01-10T06:59:52.064Z,1.68
2019-01-10T07:00:51.969Z,1.68
2019-01-10T07:02:44.925Z,1.68
2019-01-10T07:03:44.813Z,1.76
2019-01-10T07:05:48.774Z,1.75
2019-01-10T07:06:48.723Z,1.76
2019-01-10T07:08:52.745Z,1.73
2019-01-10T07:09:52.637Z,1.73
2019-01-10T07:11:56.653Z,1.75
2019-01-10T07:12:56.543Z,1.68
2019-01-10T07:15:00.491Z,1.69
2019-01-10T07:16:00.524Z,1.76
2019-01-10T07:18:04.466Z,1.72
2019-01-10T07:19:04.364Z,1.76
2019-01-10T07:21:08.383Z,1.73
2019-01-10T07:22:08.272Z,1.69
2019-01-10T07:24:12.295Z,1.76
2019-01-10T07:25:12.184Z,1.71
2019-01-10T07:27:16.189Z,1.65
2019-01-10T07:28:16.093Z,1.75
2019-01-10T07:30:20.101Z,1.68
2019-01-10T07:31:20.023Z,1.76
2019-01-10T07:33:24.123Z,1.76
2019-01-10T07:34:24.024Z,1.72
2019-01-10T07:36:28.033Z,1.73
2019-01-10T07:37:27.926Z,1.83
2019-01-10T07:39:31.948Z,1.78
2019-01-10T07:40:31.845Z,1.83
2019-01-10T07:42:24.792Z,1.80
2019-01-10T07:43:25.796Z,1.79
2019-01-10T07:45:28.704Z,1.80
2019-01-10T07:46:28.606Z,1.80
2019-01-10T07:48:32.562Z,1.87
2019-01-10T07:49:32.513Z,1.87
2019-01-10T07:51:37.034Z,1.89
2019-01-10T07:52:36.937Z,1.90
2019-01-10T07:54:42.585Z,1.83
2019-01-10T07:55:40.859Z,1.79
2019-01-10T07:57:44.865Z,1.87
2019-01-10T07:58:44.757Z,1.85
2019-01-10T08:00:48.764Z,1.82
2019-01-10T08:01:48.673Z,1.87
2019-01-10T08:03:52.678Z,1.93
2019-01-10T08:04:52.574Z,1.90
2019-01-10T08:06:56.583Z,1.83
2019-01-10T08:07:56.484Z,1.87
2019-01-10T08:10:01.152Z,1.90
2019-01-10T08:11:01.050Z,1.94
2019-01-10T08:12:54.022Z,1.91
2019-01-10T08:13:53.903Z,1.89
2019-01-10T08:15:57.921Z,1.97
2019-01-10T08:16:57.813Z,1.87
2019-01-10T08:19:01.831Z,1.97
2019-01-10T08:20:01.747Z,1.89
2019-01-10T08:22:05.741Z,1.93
2019-01-10T08:23:05.640Z,1.98
2019-01-10T08:25:09.662Z,2.06
2019-01-10T08:26:09.552Z,1.94
2019-01-10T08:28:13.572Z,2.01
2019-01-10T08:29:13.475Z,2.02
2019-01-10T08:31:17.482Z,2.06
2019-01-10T08:32:17.371Z,2.01
2019-01-10T08:34:21.392Z,1.98
2019-01-10T08:35:21.292Z,2.06
2019-01-10T08:37:25.312Z,1.98
2019-01-10T08:38:25.206Z,2.04
2019-01-10T08:40:29.225Z,2.09
2019-01-10T08:41:29.123Z,2.01
2019-01-10T08:43:33.133Z,2.09
2019-01-10T08:44:33.668Z,2.08
2019-01-10T08:46:36.973Z,2.02
2019-01-10T08:47:36.944Z,2.10
2019-01-10T08:49:40.951Z,2.15
2019-01-10T08:50:40.853Z,2.10
2019-01-10T08:52:33.812Z,2.16
2019-01-10T08:53:33.702Z,2.17
2019-01-10T08:55:37.722Z,2.16
2019-01-10T08:56:37.611Z,2.12
2019-01-10T08:58:41.632Z,2.15
2019-01-10T08:59:41.523Z,2.15
2019-01-10T09:01:45.551Z,2.16
2019-01-10T09:02:45.443Z,2.12
2019-01-10T09:04:49.475Z,2.17
2019-01-10T09:05:49.356Z,2.13
2019-01-10T09:07:53.303Z,2.16
2019-01-10T09:08:53.263Z,2.17
2019-01-10T09:10:57.284Z,2.17
2019-01-10T09:11:57.185Z,2.20
2019-01-10T09:14:01.203Z,2.19
2019-01-10T09:15:01.130Z,2.22
2019-01-10T09:17:05.113Z,2.26
2019-01-10T09:18:05.013Z,2.23
2019-01-10T09:20:09.122Z,2.20
2019-01-10T09:21:09.023Z,2.22
2019-01-10T09:23:02.083Z,2.26
2019-01-10T09:24:01.976Z,2.19
2019-01-10T09:26:06.093Z,2.22
2019-01-10T09:27:05.982Z,2.16
2019-01-10T09:29:10.032Z,2.23
2019-01-10T09:30:09.992Z,2.28
2019-01-10T09:32:14.066Z,2.26
2019-01-10T09:33:13.913Z,2.20
2019-01-10T09:35:18.037Z,2.27
2019-01-10T09:36:17.922Z,2.34
2019-01-10T09:38:22.055Z,2.35
2019-01-10T09:39:21.942Z,2.28
2019-01-10T09:41:26.063Z,2.30
2019-01-10T09:42:25.952Z,2.27
2019-01-10T09:44:30.014Z,2.33
2019-01-10T09:45:29.974Z,2.34
2019-01-10T09:47:34.093Z,2.35
2019-01-10T09:48:33.983Z,2.45
2019-01-10T09:50:38.113Z,2.37
2019-01-10T09:51:38.003Z,2.38
2019-01-10T09:53:42.233Z,2.45
2019-01-10T09:54:42.016Z,2.41
2019-01-10T09:56:46.063Z,2.40
2019-01-10T09:57:46.118Z,2.55
2019-01-10T09:59:50.309Z,2.40
2019-01-10T10:00:50.123Z,2.46
2019-01-10T10:02:43.212Z,2.45
2019-01-10T10:03:43.001Z,2.48
2019-01-10T10:05:47.222Z,2.46
2019-01-10T10:06:47.023Z,2.49
2019-01-10T10:08:51.071Z,2.56
2019-01-10T10:09:51.213Z,2.48
2019-01-10T10:11:55.265Z,2.66
2019-01-10T10:12:55.226Z,2.58
2019-01-10T10:14:59.283Z,2.53
2019-01-10T10:15:59.054Z,2.63
2019-01-10T10:18:03.133Z,2.58
2019-01-10T10:19:03.073Z,2.61
2019-01-10T10:21:07.191Z,2.64
2019-01-10T10:22:07.017Z,2.63
2019-01-10T10:24:11.952Z,2.63
2019-01-10T10:25:11.853Z,2.67
2019-01-10T10:27:15.943Z,2.76
2019-01-10T10:28:15.754Z,2.77
2019-01-10T10:30:20.794Z,2.73
2019-01-10T10:31:20.662Z,2.77
2019-01-10T10:33:24.902Z,2.70
2019-01-10T10:34:24.683Z,2.71
2019-01-10T10:36:29.989Z,2.87
2019-01-10T10:37:28.706Z,2.84
2019-01-10T10:39:32.764Z,2.92
2019-01-10T10:40:32.780Z,2.89
2019-01-10T10:42:25.883Z,2.84
2019-01-10T10:43:25.673Z,2.91
2019-01-10T10:45:29.893Z,2.88
2019-01-10T10:46:29.682Z,2.89
2019-01-10T10:47:29.771Z,2.92
2019-01-10T10:48:29.624Z,2.88
2019-01-10T10:49:29.794Z,2.88
2019-01-10T10:50:29.709Z,2.89
2019-01-10T10:51:29.535Z,2.79
2019-01-10T10:52:29.703Z,2.88
2019-01-10T10:53:29.483Z,2.92
2019-01-10T10:54:29.512Z,2.95
2019-01-10T10:55:29.411Z,2.91
2019-01-10T10:56:29.372Z,2.95
2019-01-10T10:57:29.433Z,2.98
2019-01-10T10:58:29.314Z,2.89
2019-01-10T10:59:29.348Z,2.97
2019-01-10T11:00:29.256Z,2.97
2019-01-10T11:01:29.223Z,2.95
2019-01-10T11:02:29.194Z,2.98
2019-01-10T11:03:29.285Z,2.97
2019-01-10T11:04:29.133Z,2.92
2019-01-10T11:05:29.195Z,2.88
2019-01-10T11:06:29.074Z,2.92
2019-01-10T11:07:29.093Z,2.97
2019-01-10T11:08:29.012Z,2.94
2019-01-10T11:09:29.104Z,2.95
2019-01-10T11:10:28.941Z,2.95
2019-01-10T11:11:29.036Z,2.92
2019-01-10T11:12:28.892Z,2.89
2019-01-10T11:13:28.863Z,3.00
2019-01-10T11:14:28.932Z,3.00
2019-01-10T11:15:28.796Z,3.02
2019-01-10T11:16:28.852Z,3.10
2019-01-10T11:17:28.734Z,3.10
2019-01-10T11:18:28.765Z,3.10
2019-01-10T11:19:28.673Z,3.23
2019-01-10T11:20:28.800Z,3.20
2019-01-10T11:21:28.613Z,3.23
2019-01-10T11:22:28.661Z,3.28
2019-01-10T11:23:28.552Z,3.36
2019-01-10T11:24:28.593Z,3.36
2019-01-10T11:25:28.589Z,3.33
2019-01-10T11:26:28.516Z,3.47
2019-01-10T11:27:28.433Z,3.52
2019-01-10T11:28:28.403Z,3.53
2019-01-10T11:29:28.373Z,3.53
2019-01-10T11:30:28.433Z,3.61
2019-01-10T11:31:28.313Z,3.62
2019-01-10T11:32:28.342Z,3.65
2019-01-10T11:33:28.245Z,3.62
2019-01-10T11:34:28.364Z,3.60
2019-01-10T11:35:28.192Z,3.67
2019-01-10T11:36:28.275Z,3.71
2019-01-10T11:37:28.121Z,3.78
2019-01-10T11:38:28.182Z,3.76
2019-01-10T11:39:28.063Z,3.79
2019-01-10T11:40:28.092Z,3.82
2019-01-10T11:41:28.015Z,3.94
2019-01-10T11:42:28.117Z,3.92
2019-01-10T11:43:27.942Z,3.92
2019-01-10T11:44:27.925Z,3.98
2019-01-10T11:45:27.883Z,3.89
2019-01-10T11:46:27.935Z,4.00
2019-01-10T11:47:27.823Z,4.06
2019-01-10T11:48:27.952Z,4.07
2019-01-10T11:49:27.773Z,4.06
2019-01-10T11:50:27.865Z,4.06
2019-01-10T11:51:27.702Z,4.15
2019-01-10T11:52:27.784Z,4.00
2019-01-10T11:53:35.247Z,4.10
2019-01-10T11:54:27.613Z,4.07
2019-01-10T11:55:27.699Z,4.10
2019-01-10T11:56:27.554Z,4.15
2019-01-10T11:57:27.601Z,4.07
2019-01-10T11:58:27.490Z,4.18
2019-01-10T11:59:27.466Z,4.22
2019-01-10T12:00:27.431Z,4.28
2019-01-10T12:01:27.426Z,4.36
2019-01-10T12:02:36.092Z,4.36
2019-01-10T12:03:27.343Z,4.37
2019-01-10T12:04:27.342Z,4.33
2019-01-10T12:05:27.284Z,4.39
2019-01-10T12:06:27.363Z,4.42
2019-01-10T12:07:27.232Z,4.34
2019-01-10T12:08:28.264Z,4.42
2019-01-10T12:09:27.195Z,4.50
2019-01-10T12:10:27.139Z,4.44
2019-01-10T12:11:27.190Z,4.57
2019-01-10T12:12:27.083Z,4.65
2019-01-10T12:13:27.103Z,4.59
2019-01-10T12:14:27.032Z,4.61
2019-01-10T12:15:27.013Z,4.70
2019-01-10T12:16:28.558Z,4.72
2019-01-10T12:17:26.933Z,4.83
2019-01-10T12:18:26.949Z,4.94
2019-01-10T12:19:26.896Z,5.14
2019-01-10T12:20:26.831Z,5.17
2019-01-10T12:21:26.812Z,5.20
2019-01-10T12:22:26.854Z,5.20
2019-01-10T12:23:26.766Z,5.14
2019-01-10T12:24:26.755Z,5.17
2019-01-10T12:25:26.729Z,5.13
2019-01-10T12:26:26.677Z,5.16
2019-01-10T12:27:26.683Z,5.20
2019-01-10T12:28:26.762Z,5.14
2019-01-10T12:29:26.601Z,5.05
2019-01-10T12:30:26.559Z,5.04
2019-01-10T12:31:26.612Z,5.02
2019-01-10T12:32:26.505Z,4.96
2019-01-10T12:33:26.523Z,4.86
2019-01-10T12:34:26.453Z,4.79
2019-01-10T12:35:26.435Z,4.75
2019-01-10T12:36:26.383Z,4.77
2019-01-10T12:37:26.463Z,4.75
2019-01-10T12:38:26.322Z,4.77
2019-01-10T12:39:26.364Z,4.70
2019-01-10T12:40:26.264Z,4.75
2019-01-10T12:41:26.241Z,4.72
2019-01-10T12:42:26.286Z,4.75
2019-01-10T12:43:26.181Z,4.72
2019-01-10T12:44:26.203Z,4.77
2019-01-10T12:45:26.121Z,4.73
2019-01-10T12:46:26.101Z,4.75
2019-01-10T12:47:26.114Z,4.75
2019-01-10T12:48:26.053Z,4.80
2019-01-10T12:49:26.023Z,4.76
2019-01-10T12:50:25.983Z,4.75
2019-01-10T12:51:25.955Z,4.67
2019-01-10T12:52:34.849Z,4.69
2019-01-10T12:53:25.895Z,4.75
2019-01-10T12:54:25.951Z,4.72
2019-01-10T12:55:25.837Z,4.73
2019-01-10T12:56:25.816Z,4.75
2019-01-10T12:57:25.786Z,4.69
2019-01-10T12:58:25.782Z,4.62
2019-01-10T12:59:25.714Z,4.65
2019-01-10T13:00:25.791Z,4.65
2019-01-10T13:01:25.665Z,4.65
2019-01-10T13:02:25.704Z,4.67
2019-01-10T13:03:25.604Z,4.73
2019-01-10T13:04:25.613Z,4.64
2019-01-10T13:05:25.543Z,4.65
2019-01-10T13:06:25.543Z,4.77
2019-01-10T13:07:25.482Z,4.67
2019-01-10T13:08:25.544Z,4.65
2019-01-10T13:09:25.424Z,4.61
2019-01-10T13:10:25.453Z,4.61
2019-01-10T13:11:25.363Z,4.62
2019-01-10T13:12:25.343Z,4.64
2019-01-10T13:13:25.324Z,4.72
2019-01-10T13:14:25.384Z,4.72
2019-01-10T13:15:25.252Z,4.75
2019-01-10T13:16:25.293Z,4.70
2019-01-10T13:17:25.302Z,4.65
2019-01-10T13:18:25.163Z,4.59
2019-01-10T13:19:25.215Z,4.59
2019-01-10T13:20:25.103Z,4.61
2019-01-10T13:21:25.123Z,4.57
2019-01-10T13:22:25.044Z,4.52
2019-01-10T13:23:25.042Z,4.62
2019-01-10T13:24:24.984Z,4.62
2019-01-10T13:25:25.054Z,4.61
2019-01-10T13:26:24.931Z,4.59
2019-01-10T13:27:24.962Z,4.57
2019-01-10T13:28:24.872Z,4.58
2019-01-10T13:29:24.874Z,4.65
2019-01-10T13:30:24.813Z,4.64
2019-01-10T13:31:24.882Z,4.77
2019-01-10T13:32:24.764Z,4.79
2019-01-10T13:33:24.723Z,4.77
2019-01-10T13:34:24.805Z,4.79
2019-01-10T13:35:24.675Z,4.77
2019-01-10T13:36:24.715Z,4.77
2019-01-10T13:37:24.614Z,4.88
2019-01-10T13:38:24.582Z,4.84
2019-01-10T13:39:24.551Z,4.77
2019-01-10T13:40:24.547Z,4.77
2019-01-10T13:41:24.492Z,4.83
2019-01-10T13:42:24.564Z,4.84
2019-01-10T13:43:24.434Z,4.76
2019-01-10T13:44:24.403Z,4.70
2019-01-10T13:45:24.474Z,4.77
2019-01-10T13:46:24.364Z,4.77
2019-01-10T13:47:24.391Z,4.77
2019-01-10T13:48:24.292Z,4.86
2019-01-10T13:49:24.274Z,4.80
2019-01-10T13:50:24.309Z,4.88
2019-01-10T13:51:24.214Z,4.89
2019-01-10T13:52:24.214Z,4.92
2019-01-10T13:53:24.142Z,4.92
2019-01-10T13:54:24.115Z,5.01
2019-01-10T13:55:24.083Z,5.01
2019-01-10T13:56:24.155Z,4.96
2019-01-10T13:57:24.037Z,4.94
2019-01-10T13:58:24.054Z,4.95
2019-01-10T13:59:23.985Z,4.89
2019-01-10T14:00:23.964Z,4.86
2019-01-10T14:01:23.913Z,4.86
2019-01-10T14:02:23.973Z,4.92
2019-01-10T14:03:23.854Z,4.92
2019-01-10T14:04:23.900Z,4.88
2019-01-10T14:05:23.797Z,4.84
2019-01-10T14:06:23.903Z,4.88
2019-01-10T14:07:23.732Z,4.89
2019-01-10T14:08:23.851Z,4.86
2019-01-10T14:09:23.681Z,4.80
2019-01-10T14:10:23.655Z,4.83
2019-01-10T14:11:23.626Z,4.92
2019-01-10T14:12:23.742Z,4.86
2019-01-10T14:13:23.563Z,4.77
2019-01-10T14:14:23.651Z,4.91
2019-01-10T14:15:23.529Z,4.96
2019-01-10T14:16:23.473Z,4.84
2019-01-10T14:17:23.573Z,4.84
2019-01-10T14:18:23.411Z,4.88
2019-01-10T14:19:23.485Z,4.92
2019-01-10T14:20:23.351Z,4.89
2019-01-10T14:21:23.324Z,4.89
2019-01-10T14:22:23.314Z,4.94
2019-01-10T14:23:23.416Z,4.84
2019-01-10T14:24:23.242Z,4.79
2019-01-10T14:25:23.265Z,4.75
2019-01-10T14:26:23.265Z,4.65
2019-01-10T14:27:23.154Z,4.75
2019-01-10T14:28:23.174Z,4.62
2019-01-10T14:29:23.095Z,4.67
2019-01-10T14:30:23.082Z,4.70
2019-01-10T14:31:23.043Z,4.62
2019-01-10T14:32:23.104Z,4.64
2019-01-10T14:33:22.984Z,4.61
2019-01-10T14:34:23.013Z,4.62
2019-01-10T14:35:22.925Z,4.59
2019-01-10T14:36:22.922Z,4.64
2019-01-10T14:37:22.862Z,4.65
2019-01-10T14:38:22.935Z,4.57
2019-01-10T14:39:22.803Z,4.65
2019-01-10T14:40:22.841Z,4.65
2019-01-10T14:41:22.754Z,4.52
2019-01-10T14:42:22.715Z,4.54
2019-01-10T14:43:22.703Z,4.58
2019-01-10T14:44:22.844Z,4.58
2019-01-10T14:45:22.632Z,4.62
2019-01-10T14:46:22.753Z,4.67
2019-01-10T14:47:22.575Z,4.61
2019-01-10T14:48:22.661Z,4.65
2019-01-10T14:49:22.510Z,4.65
2019-01-10T14:50:22.583Z,4.62
2019-01-10T14:51:22.464Z,4.64
2019-01-10T14:52:22.591Z,4.61
2019-01-10T14:53:22.392Z,4.58
2019-01-10T14:54:22.501Z,4.57
2019-01-10T14:55:22.335Z,4.42
2019-01-10T14:56:22.414Z,4.42
2019-01-10T14:57:22.273Z,4.51
2019-01-10T14:58:22.251Z,4.46
2019-01-10T14:59:22.215Z,4.42
2019-01-10T15:00:22.342Z,4.46
2019-01-10T15:01:22.166Z,4.37
2019-01-10T15:02:22.264Z,4.34
2019-01-10T15:03:22.099Z,4.36
2019-01-10T15:04:22.272Z,4.42
2019-01-10T15:05:22.043Z,4.32
2019-01-10T15:06:22.093Z,4.44
2019-01-10T15:07:21.994Z,4.34
2019-01-10T15:08:22.095Z,4.32
2019-01-10T15:09:21.923Z,4.32
2019-01-10T15:10:22.103Z,4.39
2019-01-10T15:11:21.863Z,4.28
2019-01-10T15:12:22.020Z,4.32
2019-01-10T15:13:21.801Z,4.34
2019-01-10T15:14:21.774Z,4.25
2019-01-10T15:15:21.754Z,4.33
2019-01-10T15:16:21.843Z,4.28
2019-01-10T15:17:21.691Z,4.25
2019-01-10T15:18:21.857Z,4.25
2019-01-10T15:19:21.633Z,4.28
2019-01-10T15:20:21.773Z,4.34
2019-01-10T15:21:21.576Z,4.36
2019-01-10T15:22:21.682Z,4.26
2019-01-10T15:23:21.513Z,4.29
2019-01-10T15:24:21.693Z,4.25
2019-01-10T15:25:21.452Z,4.25
2019-01-10T15:26:21.502Z,4.26
2019-01-10T15:27:21.393Z,4.32
2019-01-10T15:28:21.425Z,4.24
2019-01-10T15:29:21.753Z,4.32
2019-01-10T15:30:21.303Z,4.21
2019-01-10T15:31:21.332Z,4.19
2019-01-10T15:32:21.253Z,4.22
2019-01-10T15:33:21.247Z,4.14
2019-01-10T15:34:21.183Z,4.26
2019-01-10T15:35:21.150Z,4.22
2019-01-10T15:36:21.123Z,4.21
2019-01-10T15:37:21.174Z,4.10
2019-01-10T15:38:21.074Z,4.14
2019-01-10T15:39:21.082Z,4.07
2019-01-10T15:40:21.015Z,4.08
2019-01-10T15:41:21.002Z,4.12
2019-01-10T15:42:20.952Z,4.16
2019-01-10T15:43:21.003Z,4.08
2019-01-10T15:44:20.892Z,4.08
2019-01-10T15:45:20.914Z,4.14
2019-01-10T15:46:20.834Z,4.04
2019-01-10T15:47:20.833Z,4.10
2019-01-10T15:48:20.776Z,4.00
2019-01-10T15:49:20.844Z,4.06
2019-01-10T15:50:20.713Z,4.15
2019-01-10T15:51:20.683Z,4.04
2019-01-10T15:52:20.655Z,4.12
2019-01-10T15:53:20.662Z,4.08
2019-01-10T15:54:20.603Z,4.03
2019-01-10T15:55:20.585Z,4.06
2019-01-10T15:56:20.583Z,4.06
2019-01-10T15:57:20.504Z,4.04
2019-01-10T15:58:20.492Z,4.10
2019-01-10T15:59:20.443Z,4.12
2019-01-10T16:00:20.513Z,4.06
2019-01-10T16:01:20.383Z,4.14
2019-01-10T16:02:20.423Z,4.06
2019-01-10T16:03:20.324Z,4.12
2019-01-10T16:04:20.334Z,4.03
2019-01-10T16:05:20.261Z,3.98
2019-01-10T16:06:20.354Z,4.07
2019-01-10T16:07:20.215Z,4.10
2019-01-10T16:08:20.263Z,4.08
2019-01-10T16:09:20.144Z,4.06
2019-01-10T16:10:20.173Z,4.14
2019-01-10T16:11:20.109Z,4.04
2019-01-10T16:12:20.054Z,4.08
2019-01-10T16:13:20.094Z,3.96
2019-01-10T16:14:20.005Z,4.00
2019-01-10T16:15:20.012Z,4.00
2019-01-10T16:16:19.932Z,3.98
2019-01-10T16:17:25.447Z,4.04